Airfield :
LOGIN :

Register | Disclaimer

   EN    FR    IT 

 










Legend :    VFR   Marginal VFR   IFR   Intensive IFR   Very Intensive IFR
Visi :
Ceiling :
>= 8 km
>= 3000ft
5 to 8 km
1000 to 3000 ft
1500m to 5 km
500 to 1000 ft
800 to 1500m
200 to 500 ft
< 800m
< 200 ft
Symbols :   Thunderstorms  Fog  Heavy snow  Heavy precipitations  Wind > 20 kt
SIGMETs :     Misc.  Thunderstorms  Icing  Turbulence  Mountain Waves  Volcanic Ashes







- Airport Elevation : 267 ft


EGDR - Culdrose Navy

CURRENT METAR :
  • 191250Z 16003KT 3500 -RADZ FEW008 BKN010 12/10 Q1024 YLO1 TEMPO 2000 FEW004 SCT005 YLO2

EXPIRED METARs :
  • 191150Z 13004KT 9999 -RADZ BKN010 12/10 Q1024 GRN NOSIG
  • 191050Z 11004KT 9999 BKN010 11/10 Q1024 GRN NOSIG

TAF AMD TAF EGDR
Valid from the 19 at 12:00 until the 19 at 21:00 UTC


191257Z 1912/1921 VRB05KT 9999 BKN010
PROB30
TEMPO 1914/1917 3000 -RADZ SCT004 BKN005
BECMG 1915/1919 24010KT FEW008 BKN022 OVC040
TEMPO 1918/1921 SCT008 BKN015
No reported NOTAMs for that airfield.



MET'MAP, your aeronautical weather chart ! - Copyright ORBIFLY December 2007 - Disclaimer

ORBIFLY MET'MAP TEAM :

Programming & Development : Alexandra Zaïnal
Concept & Development : Baudouin d'Aumeries
Co-Development & Prog : Marc-Olivier Méhu
Technical & hardware support : Manuel Goepfert

Contact : metmap@orbifly.com




SOURCES & CREDITS :

   NOAA